createdAt,value
2022-12-26T00:01:25.210Z,100767.25
2022-12-26T00:03:53.920Z,100754.34
2022-12-26T00:06:24.709Z,100756.88
2022-12-26T00:08:53.430Z,100757.84
2022-12-26T00:11:22.390Z,100756.13
2022-12-26T00:13:55.127Z,100751.78
2022-12-26T00:16:23.531Z,100745.72
2022-12-26T00:18:52.072Z,100741.41
2022-12-26T00:21:20.360Z,100741.41
2022-12-26T00:23:48.600Z,100734.53
2022-12-26T00:26:19.524Z,100733.63
2022-12-26T00:28:48.492Z,100720.69
2022-12-26T00:31:18.509Z,100718.97
2022-12-26T00:33:46.976Z,100708.63
2022-12-26T00:36:20.171Z,100719.84
2022-12-26T00:38:48.441Z,100714.66
2022-12-26T00:41:17.921Z,100718.09
2022-12-26T00:43:46.196Z,100709.44
2022-12-26T00:46:15.070Z,100715.50
2022-12-26T00:48:43.347Z,100723.25
2022-12-26T00:51:11.332Z,100727.63
2022-12-26T00:53:39.441Z,100717.22
2022-12-26T00:56:07.510Z,100718.13
2022-12-26T00:58:35.664Z,100723.28
2022-12-26T01:01:34.225Z,100731.97
2022-12-26T01:04:02.381Z,100733.66
2022-12-26T01:06:30.815Z,100722.44
2022-12-26T01:08:59.672Z,100716.38
2022-12-26T01:11:42.970Z,100706.84
2022-12-26T01:14:15.197Z,100704.25
2022-12-26T01:16:44.833Z,100709.47
2022-12-26T01:19:13.494Z,100710.34
2022-12-26T01:21:43.134Z,100692.13
2022-12-26T01:24:11.369Z,100673.09
2022-12-26T01:26:38.992Z,100668.78
2022-12-26T01:29:06.958Z,100685.97
2022-12-26T01:31:34.668Z,100677.44
2022-12-26T01:34:02.549Z,100673.97
2022-12-26T01:36:30.198Z,100672.97
2022-12-26T01:38:58.164Z,100671.28
2022-12-26T01:41:26.585Z,100660.88
2022-12-26T01:44:02.078Z,100663.50
2022-12-26T01:46:43.970Z,100641.84
2022-12-26T01:49:36.828Z,100648.78
2022-12-26T01:52:08.643Z,100655.81
2022-12-26T01:54:42.857Z,100647.22
2022-12-26T01:57:20.478Z,100674.75
2022-12-26T01:59:50.375Z,100666.94
2022-12-26T02:02:20.898Z,100654.78
2022-12-26T02:05:10.862Z,100650.50
2022-12-26T02:07:44.261Z,100647.06
2022-12-26T02:10:17.967Z,100638.44
2022-12-26T02:12:46.781Z,100645.34
2022-12-26T02:15:17.671Z,100651.34
2022-12-26T02:17:47.583Z,100641.91
2022-12-26T02:20:24.409Z,100644.44
2022-12-26T02:23:04.278Z,100642.75
2022-12-26T02:26:03.062Z,100635.00
2022-12-26T02:28:39.576Z,100632.38
2022-12-26T02:31:37.155Z,100628.09
2022-12-26T02:34:14.823Z,100630.69
2022-12-26T02:37:21.353Z,100615.09
2022-12-26T02:40:23.828Z,100600.44
2022-12-26T02:43:10.633Z,100591.78
2022-12-26T02:46:01.344Z,100592.75
2022-12-26T02:48:49.791Z,100580.66
2022-12-26T02:51:54.266Z,100573.78
2022-12-26T02:55:05.090Z,100561.69
2022-12-26T02:58:21.151Z,100549.66
2022-12-26T03:01:14.411Z,100552.28
2022-12-26T03:04:04.541Z,100550.53
2022-12-26T03:06:54.751Z,100549.72
2022-12-26T03:09:49.726Z,100554.88
2022-12-26T03:13:03.216Z,100566.03
2022-12-26T03:15:54.401Z,100550.56
2022-12-26T03:18:58.735Z,100539.41
2022-12-26T03:21:14.386Z,100539.44
2022-12-26T03:23:45.989Z,100529.00
2022-12-26T03:26:38.853Z,100532.41
2022-12-26T03:29:35.254Z,100533.31
2022-12-26T03:32:08.358Z,100529.03
2022-12-26T03:34:43.792Z,100526.38
2022-12-26T03:37:49.234Z,100528.19
2022-12-26T03:40:59.208Z,100528.94
2022-12-26T03:44:43.018Z,100512.56
2022-12-26T03:47:34.132Z,100511.72
2022-12-26T03:50:50.463Z,100509.13
2022-12-26T03:54:14.210Z,100500.56
2022-12-26T03:57:09.733Z,100480.75
2022-12-26T04:00:07.492Z,100467.75
2022-12-26T04:03:02.494Z,100467.81
2022-12-26T04:05:50.845Z,100445.19
2022-12-26T04:08:50.046Z,100441.75
2022-12-26T04:11:40.351Z,100440.09
2022-12-26T04:14:51.166Z,100422.81
2022-12-26T04:17:52.025Z,100415.91
2022-12-26T04:20:47.080Z,100402.13
2022-12-26T04:24:01.140Z,100422.81
2022-12-26T04:27:00.564Z,100421.13
2022-12-26T04:29:48.002Z,100419.38
2022-12-26T04:32:57.465Z,100409.88
2022-12-26T04:35:57.689Z,100407.31
2022-12-26T04:38:48.856Z,100403.88
2022-12-26T04:41:37.755Z,100389.25
2022-12-26T04:44:06.874Z,100373.66
2022-12-26T04:46:38.763Z,100376.22
2022-12-26T04:49:27.631Z,100365.88
2022-12-26T04:52:00.463Z,100370.19
2022-12-26T04:54:28.917Z,100373.66
2022-12-26T04:56:56.961Z,100360.66
2022-12-26T04:59:25.941Z,100346.00
2022-12-26T05:02:12.245Z,100345.09
2022-12-26T05:04:58.772Z,100348.63
2022-12-26T05:07:49.371Z,100339.94
2022-12-26T05:10:26.524Z,100329.59
2022-12-26T05:12:55.467Z,100320.09
2022-12-26T05:15:23.566Z,100300.28
2022-12-26T05:18:10.481Z,100305.44
2022-12-26T05:20:46.567Z,100305.44
2022-12-26T05:23:43.317Z,100298.53
2022-12-26T05:26:42.284Z,100290.78
2022-12-26T05:29:10.373Z,100298.63
2022-12-26T05:31:38.165Z,100302.03
2022-12-26T05:34:16.017Z,100288.25
2022-12-26T05:36:53.269Z,100277.81
2022-12-26T05:39:21.186Z,100278.78
2022-12-26T05:41:48.954Z,100262.38
2022-12-26T05:44:17.087Z,100257.22
2022-12-26T05:46:46.937Z,100248.53
2022-12-26T05:49:15.930Z,100248.53
2022-12-26T05:51:43.599Z,100239.88
2022-12-26T05:54:11.624Z,100237.28
2022-12-26T05:56:41.912Z,100247.66
2022-12-26T05:59:14.143Z,100260.66
2022-12-26T06:01:41.855Z,100256.28
2022-12-26T06:04:09.843Z,100258.84
2022-12-26T06:06:37.484Z,100258.84
2022-12-26T06:09:05.394Z,100272.69
2022-12-26T06:11:33.022Z,100261.44
2022-12-26T06:14:02.032Z,100254.53
2022-12-26T06:16:29.729Z,100260.59
2022-12-26T06:18:57.974Z,100241.56
2022-12-26T06:21:26.320Z,100226.03
2022-12-26T06:23:54.249Z,100215.72
2022-12-26T06:26:21.998Z,100220.91
2022-12-26T06:28:50.305Z,100222.56
2022-12-26T06:31:21.413Z,100227.72
2022-12-26T06:33:54.398Z,100240.69
2022-12-26T06:36:24.458Z,100233.78
2022-12-26T06:38:53.995Z,100238.06
2022-12-26T06:41:23.967Z,100233.72
2022-12-26T06:43:52.291Z,100235.47
2022-12-26T06:46:23.069Z,100214.72
2022-12-26T06:48:52.218Z,100202.56
2022-12-26T06:51:22.704Z,100208.59
2022-12-26T06:53:52.104Z,100196.56
2022-12-26T06:56:25.924Z,100201.75
2022-12-26T06:58:54.843Z,100224.09
2022-12-26T07:01:23.598Z,100201.78
2022-12-26T07:03:55.616Z,100167.97
2022-12-26T07:06:35.307Z,100174.03
2022-12-26T07:09:17.231Z,100149.72
2022-12-26T07:11:47.964Z,100166.97
2022-12-26T07:14:16.607Z,100167.06
2022-12-26T07:16:45.908Z,100154.06
2022-12-26T07:19:15.349Z,100158.59
2022-12-26T07:21:43.562Z,100183.47
2022-12-26T07:24:19.704Z,100193.81
2022-12-26T07:26:48.669Z,100187.63
2022-12-26T07:29:17.003Z,100146.28
2022-12-26T07:31:44.898Z,100159.03
2022-12-26T07:34:12.977Z,100149.63
2022-12-26T07:36:41.539Z,100141.69
2022-12-26T07:39:09.503Z,100146.97
2022-12-26T07:41:55.601Z,100139.09
2022-12-26T07:44:23.863Z,100132.22
2022-12-26T07:46:51.501Z,100132.97
2022-12-26T07:49:19.494Z,100122.63
2022-12-26T07:51:47.159Z,100114.88
2022-12-26T07:54:16.105Z,100133.81
2022-12-26T07:56:43.790Z,100142.38
2022-12-26T07:59:17.130Z,100132.00
2022-12-26T08:01:45.247Z,100128.53
2022-12-26T08:04:13.870Z,100146.56
2022-12-26T08:06:41.609Z,100154.44
2022-12-26T08:09:16.015Z,100163.91
2022-12-26T08:11:44.349Z,100153.72
2022-12-26T08:14:14.184Z,100138.78
2022-12-26T08:16:42.081Z,100123.34
2022-12-26T08:19:10.804Z,100116.22
2022-12-26T08:21:39.212Z,100114.53
2022-12-26T08:24:07.358Z,100117.72
2022-12-26T08:28:56.703Z,100120.22
2022-12-26T08:33:57.148Z,100129.72
2022-12-26T08:36:25.634Z,100111.78
2022-12-26T08:38:53.785Z,100103.97
2022-12-26T08:41:21.916Z,100102.25
2022-12-26T08:44:25.761Z,100096.00
2022-12-26T08:46:41.754Z,100099.19
2022-12-26T08:49:09.488Z,100100.19
2022-12-26T08:51:38.024Z,100082.00
2022-12-26T08:54:06.192Z,100082.75
2022-12-26T08:56:34.257Z,100087.88
2022-12-26T08:59:02.004Z,100084.25
2022-12-26T09:01:31.618Z,100068.75
2022-12-26T09:04:02.525Z,100086.88
2022-12-26T09:06:33.879Z,100067.69
2022-12-26T09:09:02.339Z,100054.66
2022-12-26T09:11:31.009Z,100059.97
2022-12-26T09:14:01.078Z,100048.69
2022-12-26T09:16:41.965Z,100044.38
2022-12-26T09:19:17.674Z,100054.50
2022-12-26T09:21:46.575Z,100044.56
2022-12-26T09:24:17.180Z,100057.31
2022-12-26T09:26:45.537Z,100068.69
2022-12-26T09:29:14.177Z,100046.22
2022-12-26T09:31:42.343Z,100042.72
2022-12-26T09:34:10.116Z,100028.88
2022-12-26T09:36:39.531Z,100023.69
2022-12-26T09:39:07.480Z,100026.97
2022-12-26T09:41:54.317Z,100019.78
2022-12-26T09:44:51.099Z,100014.69
2022-12-26T09:47:42.455Z,100014.47
2022-12-26T09:50:10.114Z,100017.00
2022-12-26T09:52:51.880Z,100017.78
2022-12-26T09:55:35.338Z,100021.22
2022-12-26T09:58:19.861Z,100021.44
2022-12-26T10:01:15.332Z,100013.63
2022-12-26T10:03:46.172Z,100020.59
2022-12-26T10:06:18.495Z,100018.69
2022-12-26T10:09:19.760Z,100014.22
2022-12-26T10:12:05.617Z,100013.41
2022-12-26T10:14:39.612Z,99996.91
2022-12-26T10:17:34.427Z,100000.22
2022-12-26T10:20:16.282Z,100001.50
2022-12-26T10:23:19.610Z,100002.31
2022-12-26T10:26:09.091Z,99989.81
2022-12-26T10:29:02.396Z,99983.81
2022-12-26T10:31:46.181Z,99994.50
2022-12-26T10:34:39.828Z,99988.22
2022-12-26T10:37:18.133Z,99982.19
2022-12-26T10:39:56.008Z,99974.47
2022-12-26T10:42:42.213Z,99975.91
2022-12-26T10:45:32.209Z,99963.56
2022-12-26T10:48:00.395Z,99967.09
2022-12-26T10:50:30.915Z,99959.88
2022-12-26T10:53:00.617Z,99964.28
2022-12-26T10:55:35.159Z,99947.41
2022-12-26T10:58:23.963Z,99941.78
2022-12-26T11:00:51.859Z,99924.22
2022-12-26T11:03:21.418Z,99932.41
2022-12-26T11:06:08.537Z,99930.28
2022-12-26T11:08:49.559Z,99933.44
2022-12-26T11:11:48.530Z,99928.94
2022-12-26T11:14:43.097Z,99931.00
2022-12-26T11:17:29.564Z,99942.31
2022-12-26T11:20:16.921Z,99940.69
2022-12-26T11:22:45.787Z,99937.53
2022-12-26T11:25:23.272Z,99934.97
2022-12-26T11:27:54.719Z,99937.63
2022-12-26T11:30:24.776Z,99936.69
2022-12-26T11:33:13.493Z,99924.38
2022-12-26T11:35:53.784Z,99931.31
2022-12-26T11:38:38.975Z,99933.06
2022-12-26T11:41:39.773Z,99930.44
2022-12-26T11:44:10.639Z,99928.56
2022-12-26T11:46:44.087Z,99927.50
2022-12-26T11:49:33.101Z,99931.47
2022-12-26T11:52:22.520Z,99931.03
2022-12-26T11:54:51.259Z,99929.19
2022-12-26T11:57:38.990Z,99912.75
2022-12-26T12:00:18.922Z,99919.97
2022-12-26T12:02:47.088Z,99915.25
2022-12-26T12:05:39.875Z,99911.31
2022-12-26T12:08:46.174Z,99893.88
2022-12-26T12:11:31.222Z,99896.41
2022-12-26T12:14:12.652Z,99903.44
2022-12-26T12:16:59.244Z,99900.88
2022-12-26T12:19:57.982Z,99885.50
2022-12-26T12:22:40.837Z,99888.63
2022-12-26T12:25:30.804Z,99893.06
2022-12-26T12:28:25.633Z,99893.97
2022-12-26T12:31:02.870Z,99889.66
2022-12-26T12:33:38.804Z,99903.53
2022-12-26T12:36:11.863Z,99898.81
2022-12-26T12:38:56.317Z,99902.00
2022-12-26T12:41:42.898Z,99902.75
2022-12-26T12:44:36.340Z,99916.59
2022-12-26T12:47:13.670Z,99913.41
2022-12-26T12:50:09.046Z,99900.31
2022-12-26T12:52:46.345Z,99915.00
2022-12-26T12:55:32.289Z,99908.66
2022-12-26T12:58:30.092Z,99920.16
2022-12-26T13:01:16.089Z,99916.41
2022-12-26T13:03:46.893Z,99915.19
2022-12-26T13:06:25.457Z,99919.13
2022-12-26T13:09:00.669Z,99927.97
2022-12-26T13:11:37.655Z,99915.59
2022-12-26T13:14:11.439Z,99922.28
2022-12-26T13:16:43.923Z,99914.34
2022-12-26T13:19:30.900Z,99927.28
2022-12-26T13:22:04.369Z,99923.53
2022-12-26T13:24:35.616Z,99918.63
2022-12-26T13:27:21.490Z,99913.75
2022-12-26T13:29:50.334Z,99924.59
2022-12-26T13:32:24.682Z,99925.88
2022-12-26T13:34:55.954Z,99922.69
2022-12-26T13:37:39.040Z,99928.00
2022-12-26T13:40:13.225Z,99937.47
2022-12-26T13:43:14.349Z,99938.44
2022-12-26T13:45:42.314Z,99937.69
2022-12-26T13:48:19.002Z,99933.13
2022-12-26T13:51:00.140Z,99932.91
2022-12-26T13:53:37.316Z,99923.53
2022-12-26T13:56:34.755Z,99910.44
2022-12-26T13:59:08.319Z,99915.31
2022-12-26T14:01:39.439Z,99926.88
2022-12-26T14:04:48.743Z,99921.91
2022-12-26T14:07:40.940Z,99928.03
2022-12-26T14:10:30.010Z,99918.25
2022-12-26T14:13:37.153Z,99911.13
2022-12-26T14:16:18.002Z,99909.53
2022-12-26T14:18:52.965Z,99907.63
2022-12-26T14:21:47.593Z,99917.88
2022-12-26T14:24:43.841Z,99922.81
2022-12-26T14:27:17.308Z,99943.97
2022-12-26T14:30:00.118Z,99941.25
2022-12-26T14:32:46.404Z,99938.63
2022-12-26T14:35:52.440Z,99928.09
2022-12-26T14:38:44.651Z,99920.38
2022-12-26T14:41:34.067Z,99916.97
2022-12-26T14:44:20.701Z,99905.72
2022-12-26T14:46:51.571Z,99905.81
2022-12-26T14:49:40.538Z,99907.97
2022-12-26T14:52:26.852Z,99921.72
2022-12-26T14:54:55.908Z,99921.09
2022-12-26T14:57:48.464Z,99928.84
2022-12-26T15:00:22.169Z,99934.91
2022-12-26T15:02:59.411Z,99932.34
2022-12-26T15:05:32.798Z,99933.72
2022-12-26T15:08:18.631Z,99925.31
2022-12-26T15:10:55.259Z,99925.19
2022-12-26T15:13:32.284Z,99928.59
2022-12-26T15:16:21.971Z,99932.00
2022-12-26T15:19:20.795Z,99930.91
2022-12-26T15:22:19.540Z,99929.59
2022-12-26T15:25:27.272Z,99929.69
2022-12-26T15:27:57.654Z,99921.69
2022-12-26T15:30:53.635Z,99915.84
2022-12-26T15:33:30.860Z,99914.13
2022-12-26T15:36:17.455Z,99908.97
2022-12-26T15:38:57.591Z,99916.69
2022-12-26T15:41:44.882Z,99916.69
2022-12-26T15:44:26.656Z,99925.50
2022-12-26T15:47:12.408Z,99923.63
2022-12-26T15:50:10.860Z,99916.78
2022-12-26T15:52:56.668Z,99920.91
2022-12-26T15:55:34.503Z,99924.63
2022-12-26T15:58:18.529Z,99920.59
2022-12-26T16:00:52.235Z,99923.75
2022-12-26T16:03:45.297Z,99917.84
2022-12-26T16:06:20.589Z,99923.81
2022-12-26T16:08:54.700Z,99915.88
2022-12-26T16:11:31.353Z,99910.72
2022-12-26T16:14:03.539Z,99915.94
2022-12-26T16:16:37.277Z,99920.28
2022-12-26T16:19:17.184Z,99918.69
2022-12-26T16:22:07.912Z,99911.81
2022-12-26T16:24:38.609Z,99920.41
2022-12-26T16:27:09.495Z,99921.91
2022-12-26T16:29:46.678Z,99917.69
2022-12-26T16:32:18.995Z,99920.63
2022-12-26T16:34:48.345Z,99908.00
2022-12-26T16:37:23.077Z,99904.84
2022-12-26T16:40:23.785Z,99905.84
2022-12-26T16:43:22.283Z,99909.22
2022-12-26T16:45:58.765Z,99914.63
2022-12-26T16:48:29.564Z,99926.19
2022-12-26T16:50:59.515Z,99920.78
2022-12-26T16:53:47.399Z,99915.47
2022-12-26T16:56:27.713Z,99915.06
2022-12-26T16:59:16.983Z,99906.19
2022-12-26T17:01:51.844Z,99902.81
2022-12-26T17:04:23.093Z,99908.75
2022-12-26T17:07:05.487Z,99892.09
2022-12-26T17:09:45.319Z,99901.53
2022-12-26T17:12:26.116Z,99888.06
2022-12-26T17:14:55.807Z,99888.88
2022-12-26T17:17:23.735Z,99894.91
2022-12-26T17:19:54.964Z,99896.59
2022-12-26T17:22:34.949Z,99896.31
2022-12-26T17:25:17.964Z,99893.72
2022-12-26T17:27:47.120Z,99899.13
2022-12-26T17:30:32.070Z,99901.22
2022-12-26T17:33:14.490Z,99903.03
2022-12-26T17:36:44.789Z,99901.19
2022-12-26T17:38:36.178Z,99903.03
2022-12-26T17:41:05.941Z,99890.91
2022-12-26T17:43:37.221Z,99899.63
2022-12-26T17:46:07.138Z,99892.59
2022-12-26T17:48:35.477Z,99891.00
2022-12-26T17:51:11.829Z,99897.53
2022-12-26T17:53:42.077Z,99898.56
2022-12-26T17:56:28.290Z,99899.00
2022-12-26T17:58:56.270Z,99892.50
2022-12-26T18:01:23.993Z,99899.00
2022-12-26T18:03:52.979Z,99899.84
2022-12-26T18:06:22.070Z,99898.91
2022-12-26T18:08:50.360Z,99898.38
2022-12-26T18:11:18.119Z,99903.69
2022-12-26T18:13:46.310Z,99906.41
2022-12-26T18:16:19.983Z,99906.44
2022-12-26T18:18:48.701Z,99906.97
2022-12-26T18:21:16.993Z,99897.28
2022-12-26T18:23:45.480Z,99898.16
2022-12-26T18:26:26.649Z,99912.00
2022-12-26T18:28:54.694Z,99901.59
2022-12-26T18:31:22.460Z,99907.78
2022-12-26T18:33:50.713Z,99912.16
2022-12-26T18:36:19.444Z,99913.28
2022-12-26T18:38:47.352Z,99911.47
2022-12-26T18:41:16.963Z,99914.56
2022-12-26T18:43:45.246Z,99925.19
2022-12-26T18:46:31.154Z,99920.91
2022-12-26T18:48:59.261Z,99910.28
2022-12-26T18:51:30.103Z,99909.34
2022-12-26T18:53:58.058Z,99913.53
2022-12-26T18:56:26.267Z,99912.84
2022-12-26T18:58:58.026Z,99918.75
2022-12-26T19:01:26.770Z,99929.31
2022-12-26T19:03:55.220Z,99922.44
2022-12-26T19:06:28.321Z,99920.47
2022-12-26T19:08:57.197Z,99920.16
2022-12-26T19:11:25.460Z,99927.16
2022-12-26T19:13:53.982Z,99925.44
2022-12-26T19:16:23.192Z,99922.97
2022-12-26T19:18:51.374Z,99932.56
2022-12-26T19:21:19.079Z,99925.50
2022-12-26T19:23:47.933Z,99930.84
2022-12-26T19:26:17.701Z,99935.31
2022-12-26T19:28:50.650Z,99921.94
2022-12-26T19:31:18.472Z,99921.28
2022-12-26T19:33:46.608Z,99932.66
2022-12-26T19:36:14.833Z,99935.97
2022-12-26T19:38:42.999Z,99931.56
2022-12-26T19:41:13.860Z,99942.06
2022-12-26T19:43:42.110Z,99949.06
2022-12-26T19:46:13.186Z,99947.38
2022-12-26T19:48:41.183Z,99954.28
2022-12-26T19:51:13.634Z,99953.50
2022-12-26T19:53:42.993Z,99957.72
2022-12-26T19:56:13.351Z,99960.91
2022-12-26T19:58:41.693Z,99964.44
2022-12-26T20:01:30.750Z,99970.41
2022-12-26T20:04:01.605Z,99965.94
2022-12-26T20:06:31.136Z,99976.78
2022-12-26T20:09:02.036Z,99974.66
2022-12-26T20:11:33.024Z,99988.47
2022-12-26T20:14:02.423Z,99977.88
2022-12-26T20:17:03.796Z,99975.47
2022-12-26T20:19:22.577Z,99984.97
2022-12-26T20:21:50.831Z,99985.13
2022-12-26T20:24:21.409Z,99979.91
2022-12-26T20:26:50.304Z,99976.53
2022-12-26T20:29:18.895Z,99976.56
2022-12-26T20:31:46.904Z,99980.19
2022-12-26T20:34:15.042Z,99980.94
2022-12-26T20:36:42.816Z,99984.47
2022-12-26T20:39:17.023Z,99981.91
2022-12-26T20:41:44.588Z,99987.00
2022-12-26T20:44:17.500Z,99992.09
2022-12-26T20:46:45.964Z,100004.38
2022-12-26T20:49:14.100Z,100003.72
2022-12-26T20:51:43.772Z,100003.53
2022-12-26T20:54:15.008Z,100012.69
2022-12-26T20:56:43.531Z,100007.28
2022-12-26T20:59:11.791Z,100017.22
2022-12-26T21:01:40.374Z,100011.78
2022-12-26T21:04:10.548Z,100015.41
2022-12-26T21:06:38.767Z,100016.53
2022-12-26T21:09:07.389Z,100027.53
2022-12-26T21:11:38.273Z,100023.84
2022-12-26T21:14:10.995Z,100024.22
2022-12-26T21:16:48.211Z,100026.25
2022-12-26T21:19:17.273Z,100039.88
2022-12-26T21:21:47.674Z,100035.06
2022-12-26T21:24:22.854Z,100036.78
2022-12-26T21:26:50.866Z,100040.09
2022-12-26T21:29:30.307Z,100035.13
2022-12-26T21:31:59.278Z,100041.53
2022-12-26T21:34:29.467Z,100024.13
2022-12-26T21:37:17.075Z,100023.78
2022-12-26T21:39:47.203Z,100027.19
2022-12-26T21:42:15.127Z,100024.81
2022-12-26T21:44:43.162Z,100032.19
2022-12-26T21:47:10.889Z,100029.13
2022-12-26T21:49:39.277Z,100024.63
2022-12-26T21:52:07.753Z,100026.34
2022-12-26T21:54:54.438Z,100018.53
2022-12-26T21:57:23.114Z,100019.50
2022-12-26T21:59:57.972Z,100021.84
2022-12-26T22:02:56.265Z,100024.44
2022-12-26T22:05:28.122Z,100022.75
2022-12-26T22:08:01.411Z,100015.19
2022-12-26T22:10:50.971Z,100012.78
2022-12-26T22:13:19.923Z,100015.25
2022-12-26T22:16:09.118Z,100008.50
2022-12-26T22:18:43.363Z,100021.22
2022-12-26T22:21:15.901Z,100012.41
2022-12-26T22:23:44.752Z,100032.66
2022-12-26T22:26:14.769Z,100035.25
2022-12-26T22:28:43.442Z,100029.66
2022-12-26T22:31:18.653Z,100035.16
2022-12-26T22:33:46.601Z,100027.78
2022-12-26T22:36:14.928Z,100025.50
2022-12-26T22:38:42.631Z,100022.09
2022-12-26T22:41:11.007Z,100015.94
2022-12-26T22:43:38.707Z,100011.66
2022-12-26T22:46:07.342Z,100011.56
2022-12-26T22:48:35.192Z,100008.06
2022-12-26T22:51:03.121Z,100010.03
2022-12-26T22:53:31.273Z,100004.84
2022-12-26T22:56:05.399Z,100007.19
2022-12-26T22:58:33.820Z,100012.41
2022-12-26T23:01:01.858Z,100013.00
2022-12-26T23:03:29.889Z,100013.19
2022-12-26T23:05:58.054Z,100026.75
2022-12-26T23:08:28.122Z,100025.66
2022-12-26T23:10:58.426Z,100022.63
2022-12-26T23:13:28.099Z,100023.09
2022-12-26T23:16:04.461Z,100024.78
2022-12-26T23:19:18.883Z,100024.84
2022-12-26T23:21:50.395Z,100023.53
2022-12-26T23:24:27.051Z,100021.16
2022-12-26T23:27:18.143Z,100010.03
2022-12-26T23:30:04.643Z,100019.69
2022-12-26T23:32:33.218Z,100017.34
2022-12-26T23:35:00.946Z,100015.81
2022-12-26T23:37:28.918Z,100014.91
2022-12-26T23:39:56.601Z,100010.50
2022-12-26T23:42:25.117Z,100012.31
2022-12-26T23:44:52.836Z,100004.41
2022-12-26T23:47:20.938Z,99998.06
2022-12-26T23:49:48.574Z,99996.94
2022-12-26T23:52:16.537Z,99994.16
2022-12-26T23:54:44.238Z,99992.63
2022-12-26T23:57:12.182Z,99989.16
2022-12-26T23:59:39.983Z,99992.78
